createdAt,value
2023-02-07T00:01:37.891Z,104228.59
2023-02-07T00:04:40.784Z,104241.94
2023-02-07T00:07:45.014Z,104233.94
2023-02-07T00:10:47.848Z,104230.38
2023-02-07T00:13:53.561Z,104228.56
2023-02-07T00:16:56.591Z,104225.03
2023-02-07T00:19:59.430Z,104226.78
2023-02-07T00:23:03.634Z,104219.69
2023-02-07T00:26:08.753Z,104215.22
2023-02-07T00:29:15.603Z,104217.91
2023-02-07T00:32:18.647Z,104209.03
2023-02-07T00:35:21.523Z,104205.47
2023-02-07T00:38:25.738Z,104211.69
2023-02-07T00:41:30.626Z,104210.78
2023-02-07T00:44:33.815Z,104217.00
2023-02-07T00:47:36.671Z,104226.81
2023-02-07T00:50:39.485Z,104216.13
2023-02-07T00:53:44.326Z,104217.00
2023-02-07T00:56:47.255Z,104215.22
2023-02-07T00:59:50.216Z,104216.13
2023-02-07T01:02:53.560Z,104222.31
2023-02-07T01:05:56.376Z,104205.47
2023-02-07T01:09:03.855Z,104204.56
2023-02-07T01:12:07.103Z,104197.47
2023-02-07T01:15:10.374Z,104206.34
2023-02-07T01:18:14.151Z,104206.34
2023-02-07T01:21:18.454Z,104213.44
2023-02-07T01:24:22.735Z,104207.19
2023-02-07T01:27:25.851Z,104212.53
2023-02-07T01:30:28.928Z,104203.63
2023-02-07T01:33:31.762Z,104222.34
2023-02-07T01:36:34.628Z,104216.09
2023-02-07T01:39:38.831Z,104211.66
2023-02-07T01:42:41.752Z,104205.44
2023-02-07T01:45:44.824Z,104201.00
2023-02-07T01:48:47.831Z,104201.88
2023-02-07T01:51:56.350Z,104201.88
2023-02-07T01:55:03.820Z,104208.09
2023-02-07T01:58:08.309Z,104205.44
2023-02-07T02:01:18.032Z,104209.91
2023-02-07T02:04:21.313Z,104200.13
2023-02-07T02:07:24.275Z,104200.13
2023-02-07T02:10:48.999Z,104210.81
2023-02-07T02:13:59.150Z,104208.13
2023-02-07T02:17:10.481Z,104200.13
2023-02-07T02:20:51.127Z,104200.13
2023-02-07T02:24:15.915Z,104187.66
2023-02-07T02:27:33.230Z,104182.34
2023-02-07T02:31:05.561Z,104182.34
2023-02-07T02:34:18.015Z,104175.19
2023-02-07T02:37:29.926Z,104161.00
2023-02-07T02:40:40.629Z,104164.56
2023-02-07T02:43:47.222Z,104161.00
2023-02-07T02:46:52.936Z,104151.22
2023-02-07T02:49:57.859Z,104147.66
2023-02-07T02:53:00.706Z,104154.78
2023-02-07T02:56:46.580Z,104153.88
2023-02-07T03:00:07.463Z,104148.53
2023-02-07T03:03:44.608Z,104146.78
2023-02-07T03:07:03.610Z,104146.78
2023-02-07T03:10:18.221Z,104131.66
2023-02-07T03:13:28.127Z,104134.31
2023-02-07T03:16:38.019Z,104131.66
2023-02-07T03:19:47.169Z,104130.75
2023-02-07T03:22:54.347Z,104128.97
2023-02-07T03:25:58.919Z,104122.78
2023-02-07T03:29:04.315Z,104127.22
2023-02-07T03:32:09.517Z,104141.44
2023-02-07T03:35:17.708Z,104144.13
2023-02-07T03:38:22.201Z,104155.69
2023-02-07T03:41:29.896Z,104163.69
2023-02-07T03:44:36.018Z,104166.34
2023-02-07T03:47:38.996Z,104164.56
2023-02-07T03:50:41.892Z,104166.38
2023-02-07T03:53:46.112Z,104168.13
2023-02-07T03:56:49.003Z,104169.03
2023-02-07T03:59:51.900Z,104169.03
2023-02-07T04:02:54.784Z,104167.28
2023-02-07T04:05:57.712Z,104169.03
2023-02-07T04:09:01.915Z,104162.81
2023-02-07T04:12:05.240Z,104162.81
2023-02-07T04:15:09.853Z,104164.56
2023-02-07T04:18:12.719Z,104157.47
2023-02-07T04:21:15.556Z,104157.47
2023-02-07T04:24:19.723Z,104156.59
2023-02-07T04:27:22.603Z,104169.03
2023-02-07T04:30:25.479Z,104167.25
2023-02-07T04:33:28.295Z,104167.22
2023-02-07T04:36:31.287Z,104169.91
2023-02-07T04:39:35.538Z,104172.56
2023-02-07T04:42:38.365Z,104167.22
2023-02-07T04:45:41.302Z,104159.19
2023-02-07T04:48:44.257Z,104159.19
2023-02-07T04:51:47.176Z,104162.78
2023-02-07T04:54:51.783Z,104160.97
2023-02-07T04:57:54.605Z,104164.53
2023-02-07T05:00:57.520Z,104168.97
2023-02-07T05:04:00.355Z,104175.22
2023-02-07T05:07:03.244Z,104170.75
2023-02-07T05:10:07.951Z,104178.75
2023-02-07T05:13:10.932Z,104179.66
2023-02-07T05:16:14.433Z,104174.31
2023-02-07T05:19:17.287Z,104180.56
2023-02-07T05:22:20.134Z,104183.22
2023-02-07T05:25:24.402Z,104170.75
2023-02-07T05:28:27.359Z,104174.31
2023-02-07T05:31:44.120Z,104173.41
2023-02-07T05:34:47.086Z,104168.09
2023-02-07T05:37:49.966Z,104175.22
2023-02-07T05:40:54.266Z,104168.09
2023-02-07T05:43:57.113Z,104169.00
2023-02-07T05:46:59.988Z,104176.13
2023-02-07T05:50:03.016Z,104175.22
2023-02-07T05:53:06.485Z,104174.34
2023-02-07T05:56:10.646Z,104176.13
2023-02-07T05:59:13.609Z,104178.81
2023-02-07T06:02:16.477Z,104176.16
2023-02-07T06:05:21.463Z,104166.38
2023-02-07T06:08:24.366Z,104166.34
2023-02-07T06:11:29.303Z,104171.72
2023-02-07T06:14:32.122Z,104176.16
2023-02-07T06:17:35.498Z,104175.25
2023-02-07T06:20:38.364Z,104172.59
2023-02-07T06:23:41.152Z,104176.16
2023-02-07T06:26:46.770Z,104175.25
2023-02-07T06:29:49.741Z,104189.47
2023-02-07T06:32:52.550Z,104187.69
2023-02-07T06:35:55.976Z,104196.56
2023-02-07T06:38:59.191Z,104188.56
2023-02-07T06:42:03.507Z,104177.91
2023-02-07T06:45:07.035Z,104186.78
2023-02-07T06:48:10.762Z,104189.44
2023-02-07T06:51:14.882Z,104180.53
2023-02-07T06:54:17.722Z,104184.97
2023-02-07T06:57:21.869Z,104182.31
2023-02-07T07:00:25.428Z,104178.75
2023-02-07T07:03:29.430Z,104166.31
2023-02-07T07:06:32.534Z,104158.31
2023-02-07T07:09:35.825Z,104168.09
2023-02-07T07:12:40.053Z,104164.50
2023-02-07T07:15:42.953Z,104156.53
2023-02-07T07:18:46.232Z,104156.56
2023-02-07T07:21:49.119Z,104158.31
2023-02-07T07:24:52.012Z,104159.22
2023-02-07T07:27:56.186Z,104160.97
2023-02-07T07:31:04.461Z,104162.78
2023-02-07T07:34:07.595Z,104174.34
2023-02-07T07:37:12.847Z,104174.34
2023-02-07T07:40:15.733Z,104181.47
2023-02-07T07:43:20.440Z,104185.00
2023-02-07T07:46:24.713Z,104180.56
2023-02-07T07:49:27.868Z,104185.03
2023-02-07T07:52:30.707Z,104181.47
2023-02-07T07:55:33.807Z,104180.59
2023-02-07T07:58:38.081Z,104185.91
2023-02-07T08:01:40.988Z,104191.25
2023-02-07T08:04:43.886Z,104185.91
2023-02-07T08:07:46.760Z,104186.78
2023-02-07T08:10:50.390Z,104180.59
2023-02-07T08:13:54.776Z,104187.69
2023-02-07T08:16:57.672Z,104191.25
2023-02-07T08:20:00.537Z,104192.13
2023-02-07T08:23:03.396Z,104185.88
2023-02-07T08:26:07.816Z,104186.72
2023-02-07T08:29:12.950Z,104195.59
2023-02-07T08:32:16.016Z,104199.09
2023-02-07T08:35:19.479Z,104198.22
2023-02-07T08:38:22.409Z,104193.78
2023-02-07T08:41:25.269Z,104200.00
2023-02-07T08:44:29.755Z,104202.66
2023-02-07T08:47:32.746Z,104200.00
2023-02-07T08:50:35.794Z,104204.44
2023-02-07T08:53:39.049Z,104202.66
2023-02-07T08:56:42.015Z,104206.25
2023-02-07T08:59:46.287Z,104216.94
2023-02-07T09:02:49.603Z,104212.59
2023-02-07T09:05:52.464Z,104207.31
2023-02-07T09:08:55.670Z,104208.22
2023-02-07T09:11:58.515Z,104217.19
2023-02-07T09:15:02.797Z,104221.66
2023-02-07T09:18:06.306Z,104226.13
2023-02-07T09:21:09.480Z,104218.16
2023-02-07T09:24:12.392Z,104225.28
2023-02-07T09:27:15.649Z,104229.72
2023-02-07T09:30:20.092Z,104226.16
2023-02-07T09:33:23.803Z,104227.06
2023-02-07T09:36:28.743Z,104228.84
2023-02-07T09:39:32.935Z,104231.50
2023-02-07T09:42:42.952Z,104238.63
2023-02-07T09:45:50.675Z,104244.84
2023-02-07T09:49:00.371Z,104238.63
2023-02-07T09:52:06.172Z,104235.03
2023-02-07T09:55:19.179Z,104234.16
2023-02-07T09:58:31.318Z,104237.69
2023-02-07T10:01:42.000Z,104231.47
2023-02-07T10:04:49.227Z,104233.25
2023-02-07T10:07:52.146Z,104225.22
2023-02-07T10:11:11.225Z,104223.44
2023-02-07T10:14:28.088Z,104223.38
2023-02-07T10:17:48.255Z,104215.34
2023-02-07T10:21:00.886Z,104222.47
2023-02-07T10:24:30.271Z,104214.44
2023-02-07T10:27:37.823Z,104212.66
2023-02-07T10:30:42.529Z,104221.53
2023-02-07T10:33:50.284Z,104221.56
2023-02-07T10:36:57.328Z,104222.41
2023-02-07T10:40:05.076Z,104218.00
2023-02-07T10:43:19.673Z,104215.31
2023-02-07T10:46:24.178Z,104218.84
2023-02-07T10:49:31.958Z,104214.38
2023-02-07T10:52:38.597Z,104218.88
2023-02-07T10:55:46.527Z,104222.41
2023-02-07T10:58:50.001Z,104221.50
2023-02-07T11:01:54.811Z,104231.28
2023-02-07T11:05:00.643Z,104231.28
2023-02-07T11:08:08.121Z,104233.94
2023-02-07T11:11:29.773Z,104225.06
2023-02-07T11:14:33.793Z,104229.47
2023-02-07T11:17:37.978Z,104228.63
2023-02-07T11:20:42.761Z,104225.03
2023-02-07T11:23:46.154Z,104214.38
2023-02-07T11:26:57.143Z,104202.84
2023-02-07T11:30:05.416Z,104193.06
2023-02-07T11:33:19.310Z,104196.66
2023-02-07T11:36:30.800Z,104187.75
2023-02-07T11:39:33.671Z,104190.41
2023-02-07T11:42:36.883Z,104188.63
2023-02-07T11:45:44.240Z,104177.97
2023-02-07T11:48:52.410Z,104175.31
2023-02-07T11:51:59.957Z,104170.88
2023-02-07T11:55:08.584Z,104171.75
2023-02-07T11:58:19.558Z,104173.53
2023-02-07T12:01:28.328Z,104166.41
2023-02-07T12:04:38.652Z,104153.97
2023-02-07T12:07:47.423Z,104153.06
2023-02-07T12:10:56.226Z,104148.63
2023-02-07T12:14:04.856Z,104133.50
2023-02-07T12:17:17.204Z,104133.50
2023-02-07T12:20:25.931Z,104133.50
2023-02-07T12:23:42.730Z,104132.59
2023-02-07T12:26:51.763Z,104135.28
2023-02-07T12:30:01.920Z,104130.84
2023-02-07T12:33:14.579Z,104137.03
2023-02-07T12:36:26.268Z,104136.16
2023-02-07T12:39:36.293Z,104140.63
2023-02-07T12:42:44.035Z,104143.25
2023-02-07T12:46:06.171Z,104145.06
2023-02-07T12:49:28.575Z,104137.91
2023-02-07T12:52:45.663Z,104127.25
2023-02-07T12:56:02.591Z,104127.25
2023-02-07T12:59:15.691Z,104127.25
2023-02-07T13:02:35.588Z,104128.16
2023-02-07T13:05:53.877Z,104114.81
2023-02-07T13:09:03.533Z,104111.25
2023-02-07T13:12:15.864Z,104106.81
2023-02-07T13:15:25.949Z,104102.34
2023-02-07T13:18:37.520Z,104104.13
2023-02-07T13:21:44.323Z,104101.47
2023-02-07T13:24:49.114Z,104105.91
2023-02-07T13:27:57.331Z,104095.25
2023-02-07T13:31:01.603Z,104106.81
2023-02-07T13:34:05.465Z,104104.16
2023-02-07T13:37:16.985Z,104103.22
2023-02-07T13:40:33.823Z,104111.25
2023-02-07T13:43:50.892Z,104109.50
2023-02-07T13:47:13.098Z,104110.38
2023-02-07T13:50:30.396Z,104100.63
2023-02-07T13:53:46.487Z,104089.06
2023-02-07T13:57:15.512Z,104084.66
2023-02-07T14:00:21.177Z,104084.66
2023-02-07T14:03:30.406Z,104095.34
2023-02-07T14:06:37.057Z,104088.25
2023-02-07T14:09:43.006Z,104088.22
2023-02-07T14:12:50.131Z,104084.66
2023-02-07T14:16:01.225Z,104077.53
2023-02-07T14:19:04.233Z,104083.78
2023-02-07T14:22:21.090Z,104081.13
2023-02-07T14:25:38.818Z,104078.44
2023-02-07T14:28:45.225Z,104080.19
2023-02-07T14:31:51.722Z,104072.22
2023-02-07T14:35:07.757Z,104070.44
2023-02-07T14:38:23.123Z,104065.09
2023-02-07T14:41:30.392Z,104070.44
2023-02-07T14:44:36.691Z,104064.19
2023-02-07T14:47:41.126Z,104065.06
2023-02-07T14:50:52.786Z,104061.50
2023-02-07T14:54:03.774Z,104065.03
2023-02-07T14:57:17.868Z,104064.16
2023-02-07T15:00:34.295Z,104062.38
2023-02-07T15:03:38.560Z,104059.72
2023-02-07T15:06:44.532Z,104065.91
2023-02-07T15:09:47.532Z,104063.28
2023-02-07T15:12:54.318Z,104058.81
2023-02-07T15:15:59.711Z,104067.72
2023-02-07T15:19:10.875Z,104062.34
2023-02-07T15:22:26.133Z,104061.47
2023-02-07T15:25:30.881Z,104059.69
2023-02-07T15:28:34.314Z,104049.03
2023-02-07T15:31:39.973Z,104050.81
2023-02-07T15:34:46.135Z,104045.47
2023-02-07T15:37:50.168Z,104047.25
2023-02-07T15:40:55.248Z,104051.69
2023-02-07T15:44:00.369Z,104047.25
2023-02-07T15:47:06.557Z,104051.69
2023-02-07T15:50:23.199Z,104050.78
2023-02-07T15:53:29.699Z,104049.03
2023-02-07T15:56:32.672Z,104052.59
2023-02-07T15:59:36.708Z,104054.34
2023-02-07T16:02:43.854Z,104053.47
2023-02-07T16:05:48.658Z,104048.16
2023-02-07T16:08:53.877Z,104049.94
2023-02-07T16:11:56.629Z,104061.47
2023-02-07T16:15:00.041Z,104054.38
2023-02-07T16:18:04.106Z,104063.28
2023-02-07T16:21:13.989Z,104066.81
2023-02-07T16:24:18.856Z,104065.03
2023-02-07T16:27:27.338Z,104062.38
2023-02-07T16:30:33.380Z,104059.69
2023-02-07T16:33:38.364Z,104064.16
2023-02-07T16:36:45.258Z,104071.28
2023-02-07T16:39:48.059Z,104076.59
2023-02-07T16:42:54.042Z,104077.47
2023-02-07T16:45:56.946Z,104075.72
2023-02-07T16:48:59.725Z,104069.47
2023-02-07T16:52:04.361Z,104069.47
2023-02-07T16:55:07.643Z,104073.94
2023-02-07T16:58:22.269Z,104076.59
2023-02-07T17:01:25.111Z,104084.59
2023-02-07T17:04:27.960Z,104082.81
2023-02-07T17:07:32.235Z,104084.63
2023-02-07T17:10:35.955Z,104072.16
2023-02-07T17:13:38.939Z,104077.50
2023-02-07T17:16:41.884Z,104065.94
2023-02-07T17:19:47.414Z,104059.69
2023-02-07T17:22:51.922Z,104061.47
2023-02-07T17:25:54.740Z,104055.25
2023-02-07T17:28:57.836Z,104068.56
2023-02-07T17:32:00.745Z,104067.72
2023-02-07T17:35:03.581Z,104067.69
2023-02-07T17:38:07.899Z,104070.34
2023-02-07T17:41:12.457Z,104070.38
2023-02-07T17:44:16.921Z,104085.47
2023-02-07T17:47:19.764Z,104089.91
2023-02-07T17:50:25.504Z,104092.59
2023-02-07T17:53:29.660Z,104101.50
2023-02-07T17:56:33.865Z,104106.81
2023-02-07T17:59:36.656Z,104100.59
2023-02-07T18:02:39.462Z,104110.38
2023-02-07T18:05:42.604Z,104106.81
2023-02-07T18:08:47.630Z,104109.47
2023-02-07T18:11:50.614Z,104109.47
2023-02-07T18:14:55.715Z,104113.94
2023-02-07T18:17:59.771Z,104120.16
2023-02-07T18:21:03.775Z,104122.84
2023-02-07T18:24:08.590Z,104123.69
2023-02-07T18:27:13.122Z,104122.84
2023-02-07T18:30:16.303Z,104121.94
2023-02-07T18:33:20.008Z,104121.94
2023-02-07T18:36:26.688Z,104114.81
2023-02-07T18:39:31.047Z,104125.50
2023-02-07T18:42:34.313Z,104127.28
2023-02-07T18:45:41.974Z,104134.41
2023-02-07T18:48:45.946Z,104129.06
2023-02-07T18:51:48.840Z,104133.53
2023-02-07T18:54:53.344Z,104136.19
2023-02-07T18:57:56.565Z,104132.63
2023-02-07T19:01:03.193Z,104145.06
2023-02-07T19:04:06.129Z,104145.97
2023-02-07T19:07:09.129Z,104141.50
2023-02-07T19:10:16.334Z,104145.94
2023-02-07T19:13:19.147Z,104156.63
2023-02-07T19:16:24.435Z,104137.06
2023-02-07T19:19:30.220Z,104145.06
2023-02-07T19:22:35.724Z,104149.53
2023-02-07T19:25:47.367Z,104148.63
2023-02-07T19:28:51.670Z,104146.84
2023-02-07T19:31:55.287Z,104141.50
2023-02-07T19:34:58.152Z,104150.41
2023-02-07T19:38:01.071Z,104153.09
2023-02-07T19:41:06.222Z,104150.41
2023-02-07T19:44:09.114Z,104151.31
2023-02-07T19:47:11.970Z,104158.41
2023-02-07T19:50:15.449Z,104156.66
2023-02-07T19:53:18.322Z,104164.66
2023-02-07T19:56:25.320Z,104155.75
2023-02-07T19:59:28.278Z,104153.09
2023-02-07T20:02:31.142Z,104171.75
2023-02-07T20:05:34.045Z,104184.19
2023-02-07T20:08:38.671Z,104171.75
2023-02-07T20:11:42.941Z,104175.31
2023-02-07T20:14:45.925Z,104176.19
2023-02-07T20:17:48.803Z,104175.31
2023-02-07T20:20:55.727Z,104174.44
2023-02-07T20:24:01.671Z,104174.44
2023-02-07T20:27:05.927Z,104178.84
2023-02-07T20:30:09.897Z,104175.31
2023-02-07T20:33:13.167Z,104183.31
2023-02-07T20:36:18.271Z,104174.41
2023-02-07T20:39:23.149Z,104177.97
2023-02-07T20:42:27.591Z,104180.66
2023-02-07T20:45:30.520Z,104176.19
2023-02-07T20:48:33.487Z,104171.72
2023-02-07T20:51:37.971Z,104178.84
2023-02-07T20:54:40.856Z,104170.84
2023-02-07T20:57:45.134Z,104182.38
2023-02-07T21:00:47.952Z,104182.38
2023-02-07T21:03:51.902Z,104184.16
2023-02-07T21:06:55.127Z,104188.63
2023-02-07T21:09:58.225Z,104181.50
2023-02-07T21:13:02.566Z,104180.59
2023-02-07T21:16:08.408Z,104186.84
2023-02-07T21:19:11.507Z,104181.50
2023-02-07T21:22:14.362Z,104184.16
2023-02-07T21:25:17.380Z,104179.72
2023-02-07T21:28:21.633Z,104175.25
2023-02-07T21:31:24.498Z,104168.16
2023-02-07T21:34:27.441Z,104164.59
2023-02-07T21:37:30.282Z,104168.16
2023-02-07T21:40:33.605Z,104171.72
2023-02-07T21:43:40.231Z,104173.50
2023-02-07T21:46:46.060Z,104169.06
2023-02-07T21:49:49.071Z,104169.94
2023-02-07T21:52:51.897Z,104165.50
2023-02-07T21:55:54.742Z,104166.41
2023-02-07T21:59:00.427Z,104172.59
2023-02-07T22:02:03.830Z,104169.06
2023-02-07T22:05:07.366Z,104176.16
2023-02-07T22:08:11.343Z,104169.06
2023-02-07T22:11:14.815Z,104179.69
2023-02-07T22:14:19.310Z,104184.16
2023-02-07T22:17:23.453Z,104190.38
2023-02-07T22:20:26.226Z,104181.47
2023-02-07T22:23:29.091Z,104192.16
2023-02-07T22:26:32.662Z,104192.16
2023-02-07T22:29:36.861Z,104192.16
2023-02-07T22:32:39.812Z,104194.84
2023-02-07T22:35:44.426Z,104200.16
2023-02-07T22:38:47.665Z,104196.63
2023-02-07T22:41:50.571Z,104194.84
2023-02-07T22:44:54.766Z,104191.31
2023-02-07T22:47:57.597Z,104191.31
2023-02-07T22:51:00.883Z,104192.22
2023-02-07T22:54:06.382Z,104186.88
2023-02-07T22:57:13.230Z,104200.22
2023-02-07T23:00:18.933Z,104186.88
2023-02-07T23:03:21.763Z,104193.09
2023-02-07T23:06:25.478Z,104188.63
2023-02-07T23:09:28.387Z,104189.53
2023-02-07T23:12:31.944Z,104185.97
2023-02-07T23:15:36.725Z,104185.09
2023-02-07T23:18:39.730Z,104193.97
2023-02-07T23:21:42.893Z,104191.31
2023-02-07T23:24:45.782Z,104187.75
2023-02-07T23:27:48.883Z,104186.88
2023-02-07T23:30:53.148Z,104179.75
2023-02-07T23:33:56.067Z,104184.19
2023-02-07T23:36:59.286Z,104185.97
2023-02-07T23:40:02.116Z,104190.41
2023-02-07T23:43:05.174Z,104198.38
2023-02-07T23:46:10.170Z,104199.28
2023-02-07T23:49:13.608Z,104194.84
2023-02-07T23:52:16.441Z,104198.38
2023-02-07T23:55:19.790Z,104196.59
2023-02-07T23:58:23.144Z,104186.81
